createdAt,value
2022-11-16T00:03:32.369Z,100.00
2022-11-16T00:08:35.985Z,100.00
2022-11-16T00:13:38.132Z,100.00
2022-11-16T00:18:39.546Z,100.00
2022-11-16T00:23:40.870Z,100.00
2022-11-16T00:28:42.494Z,100.00
2022-11-16T00:33:43.813Z,100.00
2022-11-16T00:38:45.127Z,100.00
2022-11-16T00:43:46.468Z,100.00
2022-11-16T00:48:47.850Z,100.00
2022-11-16T00:53:49.191Z,100.00
2022-11-16T00:58:50.514Z,100.00
2022-11-16T01:03:51.827Z,100.00
2022-11-16T01:08:53.179Z,100.00
2022-11-16T01:13:55.213Z,100.00
2022-11-16T01:18:56.590Z,100.00
2022-11-16T01:23:57.982Z,100.00
2022-11-16T01:28:59.635Z,100.00
2022-11-16T01:34:01.116Z,100.00
2022-11-16T01:39:03.508Z,100.00
2022-11-16T01:44:27.923Z,100.00
2022-11-16T01:49:30.747Z,100.00
2022-11-16T01:54:34.160Z,100.00
2022-11-16T01:59:36.077Z,100.00
2022-11-16T02:04:37.409Z,100.00
2022-11-16T02:09:54.305Z,100.00
2022-11-16T02:14:58.699Z,100.00
2022-11-16T02:20:18.993Z,100.00
2022-11-16T02:25:29.547Z,100.00
2022-11-16T02:30:31.184Z,100.00
2022-11-16T02:35:36.068Z,100.00
2022-11-16T02:40:39.917Z,100.00
2022-11-16T02:45:43.960Z,100.00
2022-11-16T02:50:46.485Z,100.00
2022-11-16T02:55:47.832Z,100.00
2022-11-16T03:01:14.911Z,100.00
2022-11-16T03:06:18.513Z,100.00
2022-11-16T03:11:38.691Z,100.00
2022-11-16T03:16:45.546Z,100.00
2022-11-16T03:21:48.275Z,100.00
2022-11-16T03:26:53.310Z,100.00
2022-11-16T03:31:57.260Z,100.00
2022-11-16T03:37:00.232Z,100.00
2022-11-16T03:42:03.811Z,100.00
2022-11-16T03:47:05.173Z,100.00
2022-11-16T03:52:06.543Z,100.00
2022-11-16T03:57:07.882Z,100.00
2022-11-16T04:02:09.279Z,100.00
2022-11-16T04:07:29.162Z,100.00
2022-11-16T04:12:49.289Z,100.00
2022-11-16T04:18:09.301Z,100.00
2022-11-16T04:23:31.851Z,100.00
2022-11-16T04:28:34.439Z,100.00
2022-11-16T04:33:54.806Z,100.00
2022-11-16T04:38:56.109Z,100.00
2022-11-16T04:43:57.701Z,100.00
2022-11-16T04:48:59.033Z,100.00
2022-11-16T04:54:00.414Z,100.00
2022-11-16T04:59:01.779Z,100.00
2022-11-16T05:04:03.145Z,100.00
2022-11-16T05:09:04.521Z,100.00
2022-11-16T05:14:06.271Z,100.00
2022-11-16T05:19:26.316Z,100.00
2022-11-16T05:24:33.443Z,100.00
2022-11-16T05:29:35.285Z,100.00
2022-11-16T05:34:36.629Z,100.00
2022-11-16T05:39:38.247Z,100.00
2022-11-16T05:44:39.647Z,100.00
2022-11-16T05:49:41.002Z,100.00
2022-11-16T05:54:42.302Z,100.00
2022-11-16T05:59:44.035Z,100.00
2022-11-16T06:04:45.340Z,100.00
2022-11-16T06:09:46.670Z,100.00
2022-11-16T06:14:47.975Z,100.00
2022-11-16T06:19:49.272Z,100.00
2022-11-16T06:24:50.559Z,100.00
2022-11-16T06:29:51.864Z,100.00
2022-11-16T06:34:54.629Z,100.00
2022-11-16T06:39:56.011Z,100.00
2022-11-16T06:44:57.328Z,100.00
2022-11-16T06:49:58.636Z,100.00
2022-11-16T06:54:59.931Z,100.00
2022-11-16T07:00:01.235Z,100.00
2022-11-16T07:05:03.900Z,100.00
2022-11-16T07:10:05.757Z,100.00
2022-11-16T07:15:07.367Z,100.00
2022-11-16T07:20:08.974Z,100.00
2022-11-16T07:25:10.304Z,100.00
2022-11-16T07:30:11.967Z,100.00
2022-11-16T07:35:13.285Z,100.00
2022-11-16T07:40:14.722Z,100.00
2022-11-16T07:45:16.075Z,100.00
2022-11-16T07:50:17.419Z,100.00
2022-11-16T07:55:18.803Z,100.00
2022-11-16T08:00:20.115Z,100.00
2022-11-16T08:05:21.600Z,100.00
2022-11-16T08:10:23.301Z,97.11
2022-11-16T08:15:25.037Z,90.75
2022-11-16T08:20:26.521Z,90.01
2022-11-16T08:25:27.844Z,96.10
2022-11-16T08:30:29.239Z,100.00
2022-11-16T08:35:30.620Z,100.00
2022-11-16T08:40:33.402Z,100.00
2022-11-16T08:45:34.700Z,100.00
2022-11-16T08:50:55.534Z,100.00
2022-11-16T08:56:01.966Z,100.00
2022-11-16T09:01:10.516Z,100.00
2022-11-16T09:06:12.714Z,100.00
2022-11-16T09:11:18.702Z,100.00
2022-11-16T09:16:21.064Z,92.93
2022-11-16T09:21:23.906Z,84.15
2022-11-16T09:26:25.361Z,76.76
2022-11-16T09:31:27.818Z,75.12
2022-11-16T09:36:29.542Z,72.30
2022-11-16T09:41:47.291Z,69.63
2022-11-16T09:46:52.600Z,66.79
2022-11-16T09:51:57.245Z,70.44
2022-11-16T09:57:00.388Z,71.54
2022-11-16T10:02:05.716Z,70.42
2022-11-16T10:07:17.474Z,69.12
2022-11-16T10:12:26.675Z,64.37
2022-11-16T10:17:46.946Z,63.72
2022-11-16T10:22:54.563Z,64.05
2022-11-16T10:27:55.878Z,59.49
2022-11-16T10:33:23.693Z,67.27
2022-11-16T10:38:27.671Z,76.82
2022-11-16T10:43:31.508Z,67.42
2022-11-16T10:48:51.247Z,60.27
2022-11-16T10:53:53.855Z,54.97
2022-11-16T10:58:58.987Z,54.27
2022-11-16T11:04:12.433Z,58.50
2022-11-16T11:09:34.022Z,63.44
2022-11-16T11:14:36.221Z,58.25
2022-11-16T11:19:37.565Z,56.36
2022-11-16T11:24:46.140Z,56.48
2022-11-16T11:29:50.955Z,57.83
2022-11-16T11:34:53.236Z,55.34
2022-11-16T11:40:05.064Z,55.16
2022-11-16T11:45:08.881Z,60.41
2022-11-16T11:50:25.870Z,60.84
2022-11-16T11:55:27.243Z,55.84
2022-11-16T12:00:36.454Z,55.96
2022-11-16T12:06:02.550Z,55.19
2022-11-16T12:11:22.400Z,56.06
2022-11-16T12:16:28.964Z,56.66
2022-11-16T12:21:41.211Z,54.85
2022-11-16T12:26:46.072Z,58.40
2022-11-16T12:31:53.489Z,55.70
2022-11-16T12:37:10.794Z,60.38
2022-11-16T12:42:23.775Z,64.55
2022-11-16T12:47:31.256Z,67.66
2022-11-16T12:52:38.751Z,69.41
2022-11-16T12:58:06.516Z,72.53
2022-11-16T13:03:14.833Z,73.25
2022-11-16T13:08:34.818Z,72.30
2022-11-16T13:13:51.427Z,75.26
2022-11-16T13:18:55.441Z,78.05
2022-11-16T13:23:59.486Z,78.75
2022-11-16T13:29:15.281Z,80.49
2022-11-16T13:34:23.895Z,78.19
2022-11-16T13:39:44.204Z,76.96
2022-11-16T13:44:50.384Z,75.75
2022-11-16T13:49:54.354Z,75.43
2022-11-16T13:54:56.902Z,73.36
2022-11-16T14:00:01.561Z,75.02
2022-11-16T14:05:04.835Z,76.11
2022-11-16T14:10:07.799Z,77.61
2022-11-16T14:15:15.034Z,77.67
2022-11-16T14:20:24.596Z,77.14
2022-11-16T14:25:31.985Z,78.70
2022-11-16T14:30:45.550Z,79.07
2022-11-16T14:35:50.605Z,78.48
2022-11-16T14:40:58.924Z,79.16
2022-11-16T14:46:05.583Z,78.04
2022-11-16T14:51:18.928Z,77.92
2022-11-16T14:56:20.706Z,77.13
2022-11-16T15:01:42.280Z,77.19
2022-11-16T15:06:46.138Z,77.90
2022-11-16T15:12:07.556Z,79.09
2022-11-16T15:17:09.844Z,80.83
2022-11-16T15:22:17.902Z,83.17
2022-11-16T15:27:26.246Z,83.04
2022-11-16T15:32:27.545Z,84.98
2022-11-16T15:37:29.794Z,86.62
2022-11-16T15:42:31.171Z,86.57
2022-11-16T15:47:32.539Z,87.14
2022-11-16T15:52:52.626Z,88.25
2022-11-16T15:58:14.448Z,90.55
2022-11-16T16:03:26.216Z,92.00
2022-11-16T16:08:30.438Z,93.68
2022-11-16T16:13:39.486Z,95.01
2022-11-16T16:18:41.780Z,96.68
2022-11-16T16:23:46.574Z,97.11
2022-11-16T16:28:47.986Z,97.86
2022-11-16T16:33:49.334Z,98.86
2022-11-16T16:38:50.685Z,100.00
2022-11-16T16:43:52.119Z,100.00
2022-11-16T16:48:53.418Z,100.00
2022-11-16T16:53:54.742Z,100.00
2022-11-16T16:58:56.079Z,100.00
2022-11-16T17:03:57.648Z,100.00
2022-11-16T17:08:59.186Z,100.00
2022-11-16T17:14:00.585Z,100.00
2022-11-16T17:19:02.469Z,100.00
2022-11-16T17:24:04.011Z,100.00
2022-11-16T17:29:05.367Z,100.00
2022-11-16T17:34:10.807Z,100.00
2022-11-16T17:39:16.054Z,100.00
2022-11-16T17:44:21.566Z,100.00
2022-11-16T17:49:23.319Z,100.00
2022-11-16T17:54:24.623Z,100.00
2022-11-16T17:59:29.490Z,100.00
2022-11-16T18:04:31.375Z,100.00
2022-11-16T18:09:32.688Z,100.00
2022-11-16T18:14:34.040Z,100.00
2022-11-16T18:19:35.361Z,100.00
2022-11-16T18:24:36.674Z,100.00
2022-11-16T18:29:38.035Z,100.00
2022-11-16T18:34:39.355Z,100.00
2022-11-16T18:39:40.728Z,100.00
2022-11-16T18:44:42.023Z,100.00
2022-11-16T18:49:43.332Z,100.00
2022-11-16T18:54:44.655Z,100.00
2022-11-16T18:59:45.987Z,100.00
2022-11-16T19:04:47.488Z,100.00
2022-11-16T19:09:48.795Z,100.00
2022-11-16T19:14:50.134Z,100.00
2022-11-16T19:19:51.510Z,100.00
2022-11-16T19:24:53.206Z,100.00
2022-11-16T19:29:54.547Z,100.00
2022-11-16T19:34:55.863Z,100.00
2022-11-16T19:39:57.192Z,100.00
2022-11-16T19:44:58.522Z,100.00
2022-11-16T19:49:59.839Z,100.00
2022-11-16T19:55:01.186Z,100.00
2022-11-16T20:00:02.579Z,100.00
2022-11-16T20:05:04.048Z,100.00
2022-11-16T20:10:06.007Z,100.00
2022-11-16T20:15:07.510Z,100.00
2022-11-16T20:20:09.150Z,100.00
2022-11-16T20:25:11.094Z,100.00
2022-11-16T20:30:12.668Z,100.00
2022-11-16T20:35:18.922Z,100.00
2022-11-16T20:40:20.585Z,100.00
2022-11-16T20:45:21.908Z,100.00
2022-11-16T20:50:23.216Z,100.00
2022-11-16T20:55:24.520Z,100.00
2022-11-16T21:00:25.871Z,100.00
2022-11-16T21:05:27.193Z,100.00
2022-11-16T21:10:28.757Z,100.00
2022-11-16T21:15:30.065Z,100.00
2022-11-16T21:20:31.497Z,100.00
2022-11-16T21:25:32.809Z,100.00
2022-11-16T21:30:34.113Z,100.00
2022-11-16T21:35:35.423Z,100.00
2022-11-16T21:40:37.046Z,100.00
2022-11-16T21:45:38.360Z,100.00
2022-11-16T21:50:39.768Z,100.00
2022-11-16T21:55:48.274Z,100.00
2022-11-16T22:00:49.852Z,100.00
2022-11-16T22:06:20.032Z,100.00
2022-11-16T22:11:22.088Z,100.00
2022-11-16T22:16:23.809Z,100.00
2022-11-16T22:21:25.173Z,100.00
2022-11-16T22:26:26.478Z,100.00
2022-11-16T22:31:27.805Z,100.00
2022-11-16T22:36:29.159Z,100.00
2022-11-16T22:41:30.479Z,100.00
2022-11-16T22:46:31.776Z,100.00
2022-11-16T22:51:33.118Z,100.00
2022-11-16T22:56:34.481Z,100.00
2022-11-16T23:01:36.207Z,100.00
2022-11-16T23:06:37.633Z,100.00
2022-11-16T23:11:57.627Z,100.00
2022-11-16T23:16:58.967Z,100.00
2022-11-16T23:22:18.979Z,100.00
2022-11-16T23:27:32.370Z,100.00
2022-11-16T23:32:33.687Z,100.00
2022-11-16T23:37:35.201Z,100.00
2022-11-16T23:42:55.106Z,100.00
2022-11-16T23:47:56.405Z,100.00
2022-11-16T23:52:57.742Z,100.00
2022-11-16T23:57:59.347Z,100.00
